Maryland METAR Reports


Distance/Direction noted is from Ellicott City, MD as the crow flies

KCBE - Cumberland - 118 miles WNW
Updated: Sun, 09/21/2014 3:45 PM
Clear
Clear
 Wind from SW
Wind: SW 18 mph, Gust: 24 mph
Temperature: 84°F
Heat Index: 84°F
Dew Point: 61°F
Humidity: 45%
Barometer: 29.72 inHg
Clouds: Clear
Visibility: 10 miles
2014/09/21 19:45 KCBE 211945Z AUTO 23016G21KT 10SM CLR 29/16 A2972 RMK AO1
KHGR - Hagerstown - 57 miles NW
Updated: Sun, 09/21/2014 3:53 PM
Light rain, Mostly cloudy
Light rain, Mostly cloudy
 Wind from SSE
Wind: SSE 8 mph
Temperature: 81°F
Heat Index: 83°F
Dew Point: 64°F
Humidity: 58%
Barometer: 29.66 inHg
Summary: Light Rain
Clouds: Mostly Cloudy
Visibility: 8 miles
Cloud Details: Mostly Cloudy 8000 ft
2014/09/21 19:53 KHGR 211953Z AUTO 16007KT 8SM -RA BKN080 27/18 A2966 RMK AO2 RAB50 SLP047 P0000 T02670183 TSNO
 
KFDK - Frederick - 34 miles NW
Updated: Sun, 09/21/2014 3:45 PM
Clear
Clear
 Wind from SSW
Wind: SSW 8 mph
Temperature: 90°F
Heat Index: 91°F
Dew Point: 63°F
Humidity: 41%
Barometer: 29.68 inHg
Clouds: Clear
Visibility: 10 miles
2014/09/21 19:45 KFDK 211945Z 20007KT 10SM SKC 32/17 A2968
KGAI - Gaithersburg - 26 miles SW
Updated: Sun, 09/21/2014 3:55 PM
Clear
Clear
 Wind from S
Wind: S 5 mph
Temperature: 82°F
Heat Index: 83°F
Dew Point: 63°F
Humidity: 51%
Barometer: 29.71 inHg
Clouds: Clear
Visibility: 10 miles
2014/09/21 19:55 KGAI 211955Z 17004KT 10SM CLR 28/17 A2971 RMK AO1
 
KBWI - BWI Airport - 15 miles SE
Updated: Sun, 09/21/2014 3:54 PM
Mostly Cloudy
Mostly Cloudy
 Wind from SSE
Wind: SSE 6 mph
Temperature: 82°F
Heat Index: 83°F
Dew Point: 63°F
Humidity: 51%
Barometer: 29.67 inHg
Clouds: Mostly Cloudy
Visibility: 10 miles
Cloud Details: Few Clouds 15000 ft
Mostly Cloudy 23000 ft
2014/09/21 19:54 KBWI 211954Z 16005KT 10SM FEW150 BKN230 28/17 A2967 RMK AO2 SLP044 T02780172
KNAK - Annapolis - 32 miles SSE
Updated: Sun, 09/21/2014 3:54 PM
Clear
Clear
 Wind from ESE
Wind: ESE 9 mph
Temperature: 73°F
Dew Point: 66°F
Humidity: 78%
Barometer: 29.68 inHg
Clouds: Clear
Visibility: 10 miles
2014/09/21 19:54 KNAK 211954Z AUTO 12008KT 10SM CLR 23/19 A2968 RMK AO2 SLP052 T02330189 $
 
KESN - Easton - 63 miles SE
Updated: Sun, 09/21/2014 3:50 PM
Mostly Cloudy
Mostly Cloudy
 Wind from calm
Wind: Calm
Temperature: 81°F
Heat Index: 82°F
Dew Point: 63°F
Humidity: 54%
Barometer: 29.72 inHg
Clouds: Mostly Cloudy
Visibility: 10 miles
Cloud Details: Mostly Cloudy 20000 ft
2014/09/21 19:50 KESN 211950Z 00000KT 10SM BKN200 27/17 A2972
KSBY - Salisbury - 112 miles SE
Updated: Sun, 09/21/2014 3:54 PM
Clear
Clear
 Wind from NW
Wind: NW 6 mph
Temperature: 82°F
Heat Index: 84°F
Dew Point: 66°F
Humidity: 58%
Barometer: 29.68 inHg
Clouds: Clear
Visibility: 10 miles
2014/09/21 19:54 KSBY 211954Z 32005KT 10SM CLR 28/19 A2968 RMK AO2 SLP052 T02780189